Terminal Aerodrome Forecast
Issued by NWS Memphis, TN

Home | Current Version | Previous Version | Text Only | Print | Product List | Glossary On
Versions: 1 2 3 4 5 6 7 8 9 10 11 12 13 14
000
FTUS44 KMEG 261734
TAFJBR
TAF
KJBR 261734Z 2618/2718 15010KT P6SM SCT080 OVC200
     FM270200 12004KT P6SM OVC050
     FM270700 10005KT P6SM -SHRA BKN007 OVC015
     FM271000 07004KT 1SM -DZ BR OVC004
     FM271500 13007KT P6SM VCSH OVC007=

USA.gov is the U.S. government's official web portal to all federal, state and local government web resources and services.